createdAt,value
2019-05-21T00:01:06.372Z,35.88
2019-05-21T00:03:38.330Z,36.32
2019-05-21T00:06:09.847Z,35.96
2019-05-21T00:08:41.767Z,35.90
2019-05-21T00:11:13.401Z,35.90
2019-05-21T00:13:45.043Z,35.03
2019-05-21T00:16:17.002Z,33.74
2019-05-21T00:18:48.902Z,33.70
2019-05-21T00:21:20.436Z,33.53
2019-05-21T00:23:52.175Z,33.60
2019-05-21T00:26:25.636Z,33.84
2019-05-21T00:29:32.131Z,33.89
2019-05-21T00:32:38.648Z,33.65
2019-05-21T00:35:51.356Z,34.27
2019-05-21T00:38:58.074Z,33.74
2019-05-21T00:42:02.942Z,33.61
2019-05-21T00:44:39.968Z,33.53
2019-05-21T00:47:13.997Z,33.95
2019-05-21T00:49:45.932Z,33.94
2019-05-21T00:52:17.840Z,34.18
2019-05-21T00:54:49.739Z,33.97
2019-05-21T00:57:21.944Z,34.84
2019-05-21T00:59:54.146Z,33.77
2019-05-21T01:02:26.162Z,33.71
2019-05-21T01:05:00.699Z,33.78
2019-05-21T01:07:30.705Z,33.70
2019-05-21T01:10:02.391Z,33.00
2019-05-21T01:12:34.374Z,32.75
2019-05-21T01:15:06.240Z,31.99
2019-05-21T01:17:37.625Z,32.03
2019-05-21T01:20:09.669Z,32.72
2019-05-21T01:22:41.239Z,31.39
2019-05-21T01:25:13.294Z,31.19
2019-05-21T01:27:45.166Z,31.19
2019-05-21T01:30:16.905Z,31.02
2019-05-21T01:32:48.650Z,31.05
2019-05-21T01:35:22.147Z,30.91
2019-05-21T01:37:53.451Z,31.06
2019-05-21T01:40:25.143Z,30.29
2019-05-21T01:42:56.844Z,30.05
2019-05-21T01:45:28.349Z,30.38
2019-05-21T01:47:59.875Z,30.44
2019-05-21T01:50:31.646Z,30.93
2019-05-21T01:53:03.220Z,30.93
2019-05-21T01:55:35.041Z,30.24
2019-05-21T01:58:06.970Z,30.57
2019-05-21T02:00:38.950Z,30.68
2019-05-21T02:03:10.561Z,30.20
2019-05-21T02:05:42.163Z,30.92
2019-05-21T02:08:13.577Z,29.84
2019-05-21T02:10:45.139Z,29.63
2019-05-21T02:13:16.863Z,29.60
2019-05-21T02:15:48.510Z,29.52
2019-05-21T02:18:19.922Z,28.76
2019-05-21T02:20:51.514Z,28.67
2019-05-21T02:23:23.107Z,28.04
2019-05-21T02:25:54.484Z,28.04
2019-05-21T02:28:26.430Z,28.38
2019-05-21T02:30:58.190Z,28.25
2019-05-21T02:33:29.684Z,28.11
2019-05-21T02:36:01.116Z,28.23
2019-05-21T02:38:32.859Z,28.03
2019-05-21T02:41:04.300Z,28.03
2019-05-21T02:43:35.671Z,28.03
2019-05-21T02:46:07.206Z,27.35
2019-05-21T02:48:38.729Z,27.57
2019-05-21T02:51:10.219Z,27.85
2019-05-21T02:53:41.843Z,28.21
2019-05-21T02:56:13.554Z,28.01
2019-05-21T02:58:44.997Z,27.71
2019-05-21T03:01:47.652Z,27.70
2019-05-21T03:04:19.669Z,27.15
2019-05-21T03:06:52.899Z,27.15
2019-05-21T03:09:24.853Z,27.50
2019-05-21T03:11:56.459Z,27.50
2019-05-21T03:14:28.391Z,28.00
2019-05-21T03:16:59.962Z,27.69
2019-05-21T03:19:31.666Z,27.20
2019-05-21T03:22:03.390Z,27.16
2019-05-21T03:24:35.201Z,27.16
2019-05-21T03:27:07.320Z,27.59
2019-05-21T03:29:39.220Z,27.59
2019-05-21T03:32:10.707Z,27.64
2019-05-21T03:34:42.353Z,27.37
2019-05-21T03:37:13.579Z,26.62
2019-05-21T03:39:45.241Z,27.19
2019-05-21T03:42:16.958Z,26.56
2019-05-21T03:44:59.570Z,26.56
2019-05-21T03:47:22.561Z,26.55
2019-05-21T03:49:54.633Z,26.16
2019-05-21T03:52:26.773Z,25.76
2019-05-21T03:55:02.640Z,23.62
2019-05-21T03:57:31.448Z,23.62
2019-05-21T04:00:02.912Z,23.29
2019-05-21T04:02:34.857Z,23.50
2019-05-21T04:05:06.720Z,23.56
2019-05-21T04:07:38.110Z,23.58
2019-05-21T04:10:17.206Z,23.48
2019-05-21T04:13:09.513Z,24.04
2019-05-21T04:16:06.859Z,23.80
2019-05-21T04:18:52.807Z,23.90
2019-05-21T04:21:24.311Z,24.00
2019-05-21T04:23:56.132Z,23.50
2019-05-21T04:26:27.669Z,23.74
2019-05-21T04:28:59.075Z,23.48
2019-05-21T04:31:30.955Z,23.38
2019-05-21T04:34:02.363Z,23.41
2019-05-21T04:36:33.931Z,23.47
2019-05-21T04:39:06.055Z,21.94
2019-05-21T04:41:38.026Z,22.42
2019-05-21T04:44:09.438Z,22.72
2019-05-21T04:46:40.808Z,22.35
2019-05-21T04:49:12.559Z,22.06
2019-05-21T04:51:44.225Z,22.31
2019-05-21T04:54:15.867Z,21.20
2019-05-21T04:56:47.425Z,21.20
2019-05-21T04:59:18.807Z,22.25
2019-05-21T05:01:50.110Z,22.03
2019-05-21T05:04:22.295Z,21.72
2019-05-21T05:06:53.840Z,21.72
2019-05-21T05:09:25.572Z,21.90
2019-05-21T05:11:57.252Z,22.39
2019-05-21T05:14:28.974Z,22.90
2019-05-21T05:17:00.418Z,22.90
2019-05-21T05:19:31.829Z,22.64
2019-05-21T05:22:03.735Z,22.24
2019-05-21T05:24:37.087Z,23.00
2019-05-21T05:27:08.919Z,22.98
2019-05-21T05:29:40.470Z,22.98
2019-05-21T05:32:11.994Z,22.51
2019-05-21T05:34:44.137Z,22.51
2019-05-21T05:37:15.853Z,22.58
2019-05-21T05:39:47.246Z,22.00
2019-05-21T05:42:18.683Z,21.41
2019-05-21T05:44:50.468Z,21.41
2019-05-21T05:47:22.228Z,21.33
2019-05-21T05:49:55.319Z,21.18
2019-05-21T05:52:27.226Z,20.01
2019-05-21T05:54:59.108Z,20.24
2019-05-21T05:57:30.734Z,20.24
2019-05-21T06:00:02.415Z,20.33
2019-05-21T06:02:35.167Z,20.56
2019-05-21T06:05:07.298Z,20.56
2019-05-21T06:08:03.110Z,21.19
2019-05-21T06:11:09.547Z,20.76
2019-05-21T06:14:00.269Z,20.68
2019-05-21T06:17:08.825Z,20.68
2019-05-21T06:20:02.504Z,20.44
2019-05-21T06:26:06.495Z,21.06
2019-05-21T06:29:08.183Z,21.85
2019-05-21T06:31:53.555Z,21.06
2019-05-21T06:34:41.008Z,21.11
2019-05-21T06:37:30.534Z,20.93
2019-05-21T06:40:19.078Z,20.04
2019-05-21T06:43:07.263Z,20.65
2019-05-21T06:45:56.132Z,20.96
2019-05-21T06:48:44.655Z,21.82
2019-05-21T06:51:32.265Z,22.00
2019-05-21T06:54:20.823Z,21.25
2019-05-21T06:57:10.083Z,21.62
2019-05-21T06:59:59.399Z,20.01
2019-05-21T07:02:46.919Z,20.01
2019-05-21T07:05:36.180Z,19.62
2019-05-21T07:08:34.036Z,20.38
2019-05-21T07:11:17.784Z,19.94
2019-05-21T07:14:05.872Z,19.59
2019-05-21T07:16:54.088Z,20.35
2019-05-21T07:19:42.813Z,19.69
2019-05-21T07:22:30.818Z,19.49
2019-05-21T07:25:18.700Z,19.80
2019-05-21T07:28:09.461Z,20.55
2019-05-21T07:30:58.839Z,20.76
2019-05-21T07:33:47.491Z,20.52
2019-05-21T07:36:36.955Z,20.56
2019-05-21T07:39:25.813Z,19.97
2019-05-21T07:42:11.735Z,20.46
2019-05-21T07:45:01.386Z,19.99
2019-05-21T07:47:43.013Z,19.75
2019-05-21T07:50:22.204Z,19.75
2019-05-21T07:53:00.947Z,18.93
2019-05-21T07:55:38.220Z,19.93
2019-05-21T07:58:15.611Z,23.20
2019-05-21T08:00:52.535Z,22.96
2019-05-21T08:03:31.203Z,22.96
2019-05-21T08:06:08.162Z,19.27
2019-05-21T08:08:45.451Z,23.10
2019-05-21T08:11:25.293Z,20.97
2019-05-21T08:14:00.609Z,19.99
2019-05-21T08:16:35.590Z,22.17
2019-05-21T08:19:11.211Z,20.21
2019-05-21T08:21:45.526Z,20.21
2019-05-21T08:24:20.479Z,22.20
2019-05-21T08:26:53.642Z,22.20
2019-05-21T08:29:27.957Z,23.77
2019-05-21T08:32:00.811Z,23.77
2019-05-21T08:34:33.504Z,23.76
2019-05-21T08:37:07.347Z,21.49
2019-05-21T08:39:39.642Z,21.49
2019-05-21T08:42:12.998Z,21.05
2019-05-21T08:44:46.552Z,22.73
2019-05-21T08:47:18.886Z,22.73
2019-05-21T08:49:50.904Z,20.78
2019-05-21T08:52:23.446Z,19.67
2019-05-21T08:55:05.918Z,20.24
2019-05-21T08:57:42.830Z,19.61
2019-05-21T09:00:33.908Z,19.00
2019-05-21T09:03:21.181Z,20.18
2019-05-21T09:06:10.863Z,21.44
2019-05-21T09:08:58.754Z,22.45
2019-05-21T09:11:47.433Z,24.61
2019-05-21T09:14:34.982Z,28.13
2019-05-21T09:17:23.707Z,20.21
2019-05-21T09:20:11.639Z,20.21
2019-05-21T09:23:01.911Z,19.78
2019-05-21T09:25:50.656Z,19.78
2019-05-21T09:28:38.288Z,20.24
2019-05-21T09:31:25.545Z,19.37
2019-05-21T09:34:12.703Z,19.61
2019-05-21T09:37:00.210Z,19.28
2019-05-21T09:39:47.815Z,19.36
2019-05-21T09:42:35.710Z,19.36
2019-05-21T09:45:23.141Z,19.28
2019-05-21T09:48:12.370Z,19.74
2019-05-21T09:51:00.103Z,19.79
2019-05-21T09:53:47.205Z,19.70
2019-05-21T09:56:40.918Z,19.92
2019-05-21T09:59:44.702Z,19.92
2019-05-21T10:02:34.900Z,19.30
2019-05-21T10:05:22.989Z,19.27
2019-05-21T10:08:37.380Z,19.27
2019-05-21T10:11:39.174Z,18.50
2019-05-21T10:14:28.896Z,18.89
2019-05-21T10:17:39.347Z,18.77
2019-05-21T10:20:34.669Z,18.46
2019-05-21T10:26:52.692Z,18.74
2019-05-21T10:29:45.355Z,19.08
2019-05-21T10:32:42.794Z,19.40
2019-05-21T10:35:54.227Z,19.22
2019-05-21T10:38:44.480Z,19.61
2019-05-21T10:41:40.754Z,19.07
2019-05-21T10:44:53.951Z,19.47
2019-05-21T10:47:55.943Z,18.87
2019-05-21T10:54:08.996Z,19.23
2019-05-21T10:57:11.202Z,18.69
2019-05-21T11:03:20.489Z,19.18
2019-05-21T11:06:21.288Z,19.29
2019-05-21T11:12:41.119Z,18.55
2019-05-21T11:15:49.762Z,19.17
2019-05-21T11:18:55.364Z,19.17
2019-05-21T11:21:50.475Z,18.58
2019-05-21T11:24:46.049Z,18.50
2019-05-21T11:27:44.640Z,18.54
2019-05-21T11:30:51.063Z,18.60
2019-05-21T11:33:55.186Z,18.78
2019-05-21T11:36:55.870Z,18.51
2019-05-21T11:39:51.311Z,18.64
2019-05-21T11:42:42.632Z,18.79
2019-05-21T11:45:49.164Z,19.40
2019-05-21T11:48:44.821Z,19.16
2019-05-21T11:51:34.665Z,19.16
2019-05-21T11:54:28.390Z,19.44
2019-05-21T11:57:19.999Z,18.95
2019-05-21T12:00:21.593Z,18.95
2019-05-21T12:03:15.273Z,19.27
2019-05-21T12:06:03.970Z,19.54
2019-05-21T12:08:57.502Z,19.21
2019-05-21T12:11:54.195Z,19.41
2019-05-21T12:14:55.840Z,19.42
2019-05-21T12:17:44.490Z,19.42
2019-05-21T12:20:39.874Z,19.63
2019-05-21T12:23:32.343Z,19.67
2019-05-21T12:26:26.669Z,19.70
2019-05-21T12:29:19.029Z,20.17
2019-05-21T12:32:07.439Z,19.83
2019-05-21T12:35:07.738Z,19.87
2019-05-21T12:38:05.620Z,20.05
2019-05-21T12:40:57.441Z,20.21
2019-05-21T12:43:48.817Z,20.08
2019-05-21T12:46:36.184Z,20.08
2019-05-21T12:49:26.743Z,20.90
2019-05-21T12:52:18.987Z,20.64
2019-05-21T12:55:07.182Z,20.64
2019-05-21T12:57:57.189Z,20.58
2019-05-21T13:00:49.010Z,20.37
2019-05-21T13:03:36.856Z,20.37
2019-05-21T13:06:26.879Z,20.38
2019-05-21T13:09:32.229Z,21.00
2019-05-21T13:12:06.670Z,21.00
2019-05-21T13:15:02.662Z,20.84
2019-05-21T13:17:49.402Z,21.18
2019-05-21T13:20:38.233Z,20.85
2019-05-21T13:23:25.665Z,21.10
2019-05-21T13:26:15.454Z,21.43
2019-05-21T13:29:02.700Z,21.69
2019-05-21T13:31:50.239Z,21.69
2019-05-21T13:34:37.132Z,22.23
2019-05-21T13:37:24.288Z,22.22
2019-05-21T13:40:10.681Z,22.73
2019-05-21T13:42:58.293Z,22.73
2019-05-21T13:45:46.577Z,22.31
2019-05-21T13:48:34.590Z,22.66
2019-05-21T13:51:21.981Z,24.23
2019-05-21T13:54:09.811Z,24.37
2019-05-21T13:56:57.833Z,28.85
2019-05-21T13:59:31.714Z,28.85
2019-05-21T14:02:03.445Z,24.42
2019-05-21T14:04:35.132Z,28.45
2019-05-21T14:07:07.231Z,25.55
2019-05-21T14:09:38.551Z,28.95
2019-05-21T14:12:10.468Z,31.11
2019-05-21T14:14:42.332Z,31.11
2019-05-21T14:17:13.980Z,35.13
2019-05-21T14:19:45.636Z,35.03
2019-05-21T14:22:17.236Z,34.52
2019-05-21T14:24:50.502Z,35.64
2019-05-21T14:27:22.133Z,35.96
2019-05-21T14:29:53.910Z,33.76
2019-05-21T14:32:25.735Z,35.94
2019-05-21T14:35:01.177Z,35.68
2019-05-21T14:37:30.542Z,36.81
2019-05-21T14:40:02.282Z,31.99
2019-05-21T14:42:33.666Z,30.38
2019-05-21T14:45:05.690Z,33.52
2019-05-21T14:47:37.392Z,34.70
2019-05-21T14:50:10.542Z,29.96
2019-05-21T14:52:41.987Z,29.96
2019-05-21T14:55:13.814Z,26.67
2019-05-21T14:57:45.280Z,25.48
2019-05-21T15:00:43.195Z,25.26
2019-05-21T15:03:24.915Z,25.30
2019-05-21T15:05:48.150Z,24.95
2019-05-21T15:08:19.557Z,25.37
2019-05-21T15:10:54.496Z,25.37
2019-05-21T15:13:25.640Z,24.92
2019-05-21T15:15:58.544Z,24.79
2019-05-21T15:18:30.069Z,24.79
2019-05-21T15:21:12.613Z,25.04
2019-05-21T15:23:44.907Z,25.96
2019-05-21T15:26:17.395Z,27.54
2019-05-21T15:28:48.920Z,31.13
2019-05-21T15:31:21.086Z,30.59
2019-05-21T15:33:52.571Z,30.59
2019-05-21T15:36:24.276Z,30.39
2019-05-21T15:38:56.191Z,31.39
2019-05-21T15:41:27.790Z,32.32
2019-05-21T15:43:59.142Z,32.37
2019-05-21T15:46:47.137Z,28.55
2019-05-21T15:49:04.433Z,26.52
2019-05-21T15:51:36.091Z,25.41
2019-05-21T15:54:07.849Z,23.33
2019-05-21T15:56:39.542Z,23.38
2019-05-21T15:59:11.170Z,23.38
2019-05-21T16:01:44.071Z,23.18
2019-05-21T16:04:16.778Z,22.82
2019-05-21T16:06:49.316Z,22.82
2019-05-21T16:09:21.162Z,23.15
2019-05-21T16:11:52.987Z,22.84
2019-05-21T16:14:24.823Z,22.84
2019-05-21T16:16:56.886Z,23.42
2019-05-21T16:19:28.297Z,23.55
2019-05-21T16:22:00.109Z,23.36
2019-05-21T16:24:31.706Z,23.32
2019-05-21T16:27:37.361Z,23.74
2019-05-21T16:30:09.687Z,23.74
2019-05-21T16:32:41.962Z,23.68
2019-05-21T16:35:13.769Z,23.68
2019-05-21T16:37:46.821Z,23.48
2019-05-21T16:40:18.712Z,24.08
2019-05-21T16:42:50.659Z,23.99
2019-05-21T16:45:23.889Z,23.99
2019-05-21T16:47:56.426Z,24.19
2019-05-21T16:50:29.408Z,24.12
2019-05-21T16:53:01.121Z,24.40
2019-05-21T16:55:33.470Z,24.29
2019-05-21T16:58:05.541Z,24.22
2019-05-21T17:00:37.183Z,24.39
2019-05-21T17:03:09.047Z,24.56
2019-05-21T17:05:40.768Z,24.22
2019-05-21T17:08:12.900Z,24.33
2019-05-21T17:10:44.396Z,24.77
2019-05-21T17:13:16.140Z,24.70
2019-05-21T17:15:47.739Z,24.79
2019-05-21T17:18:19.897Z,24.74
2019-05-21T17:20:51.650Z,25.29
2019-05-21T17:23:24.606Z,25.29
2019-05-21T17:25:56.252Z,25.32
2019-05-21T17:28:27.970Z,25.78
2019-05-21T17:30:59.473Z,26.15
2019-05-21T17:33:31.205Z,26.87
2019-05-21T17:36:02.528Z,26.87
2019-05-21T17:38:34.766Z,27.82
2019-05-21T17:41:06.408Z,27.82
2019-05-21T17:43:38.276Z,33.08
2019-05-21T17:46:09.852Z,33.08
2019-05-21T17:48:41.775Z,32.07
2019-05-21T17:51:13.311Z,30.88
2019-05-21T17:53:45.415Z,30.86
2019-05-21T17:56:17.121Z,30.17
2019-05-21T17:58:48.899Z,30.21
2019-05-21T18:01:20.850Z,29.79
2019-05-21T18:03:52.812Z,29.47
2019-05-21T18:06:25.362Z,29.56
2019-05-21T18:08:57.181Z,29.51
2019-05-21T18:11:29.024Z,29.63
2019-05-21T18:14:00.773Z,29.64
2019-05-21T18:16:32.693Z,29.60
2019-05-21T18:19:08.391Z,29.59
2019-05-21T18:21:38.839Z,29.96
2019-05-21T18:24:10.606Z,30.06
2019-05-21T18:26:42.336Z,37.11
2019-05-21T18:29:13.692Z,34.85
2019-05-21T18:31:45.566Z,34.85
2019-05-21T18:34:18.084Z,33.32
2019-05-21T18:36:49.549Z,33.30
2019-05-21T18:39:21.504Z,32.80
2019-05-21T18:41:53.432Z,32.80
2019-05-21T18:44:24.944Z,32.80
2019-05-21T18:46:57.455Z,32.88
2019-05-21T18:49:28.869Z,32.96
2019-05-21T18:52:00.663Z,32.68
2019-05-21T18:54:32.389Z,32.42
2019-05-21T18:57:03.962Z,32.36
2019-05-21T18:59:35.689Z,32.36
2019-05-21T19:02:08.363Z,32.23
2019-05-21T19:04:40.027Z,32.08
2019-05-21T19:07:12.304Z,32.55
2019-05-21T19:09:44.362Z,32.55
2019-05-21T19:12:16.179Z,31.94
2019-05-21T19:14:48.114Z,31.59
2019-05-21T19:17:34.306Z,31.83
2019-05-21T19:19:56.119Z,32.16
2019-05-21T19:22:27.846Z,31.92
2019-05-21T19:24:59.836Z,31.83
2019-05-21T19:27:31.372Z,31.92
2019-05-21T19:30:03.652Z,32.60
2019-05-21T19:32:36.850Z,32.63
2019-05-21T19:35:08.700Z,32.84
2019-05-21T19:37:40.520Z,33.13
2019-05-21T19:40:12.772Z,32.84
2019-05-21T19:42:54.293Z,32.63
2019-05-21T19:45:20.339Z,32.68
2019-05-21T19:47:52.064Z,32.68
2019-05-21T19:50:24.187Z,32.33
2019-05-21T19:52:56.332Z,32.15
2019-05-21T19:55:29.080Z,33.13
2019-05-21T19:58:00.851Z,33.20
2019-05-21T20:00:35.965Z,33.00
2019-05-21T20:03:08.070Z,33.06
2019-05-21T20:05:40.239Z,33.70
2019-05-21T20:08:12.168Z,33.86
2019-05-21T20:10:44.836Z,34.21
2019-05-21T20:13:16.833Z,34.25
2019-05-21T20:15:48.098Z,33.86
2019-05-21T20:18:20.203Z,33.30
2019-05-21T20:20:53.050Z,33.30
2019-05-21T20:23:26.301Z,33.83
2019-05-21T20:25:57.935Z,34.49
2019-05-21T20:28:29.696Z,34.49
2019-05-21T20:31:01.471Z,35.13
2019-05-21T20:33:35.063Z,36.22
2019-05-21T20:36:08.634Z,36.41
2019-05-21T20:38:40.968Z,36.07
2019-05-21T20:41:12.738Z,35.66
2019-05-21T20:43:58.290Z,35.64
2019-05-21T20:46:19.064Z,36.18
2019-05-21T20:48:50.948Z,36.97
2019-05-21T20:51:22.774Z,36.55
2019-05-21T20:53:54.620Z,36.55
2019-05-21T20:56:26.175Z,37.24
2019-05-21T20:58:58.076Z,37.52
2019-05-21T21:01:30.174Z,37.52
2019-05-21T21:04:03.020Z,37.86
2019-05-21T21:06:36.354Z,37.86
2019-05-21T21:09:10.622Z,38.33
2019-05-21T21:11:42.816Z,38.03
2019-05-21T21:14:18.316Z,38.03
2019-05-21T21:16:50.476Z,38.48
2019-05-21T21:19:21.868Z,38.17
2019-05-21T21:21:53.504Z,37.59
2019-05-21T21:24:24.992Z,37.13
2019-05-21T21:26:59.282Z,37.25
2019-05-21T21:29:30.923Z,36.80
2019-05-21T21:32:02.367Z,36.90
2019-05-21T21:34:33.883Z,35.99
2019-05-21T21:37:07.325Z,35.95
2019-05-21T21:39:39.144Z,35.38
2019-05-21T21:42:11.935Z,35.35
2019-05-21T21:44:43.627Z,35.35
2019-05-21T21:47:16.038Z,35.06
2019-05-21T21:49:49.609Z,35.93
2019-05-21T21:52:21.504Z,35.59
2019-05-21T21:54:53.833Z,35.88
2019-05-21T21:57:25.505Z,36.28
2019-05-21T21:59:57.793Z,36.06
2019-05-21T22:02:34.252Z,35.93
2019-05-21T22:05:09.151Z,35.93
2019-05-21T22:07:40.863Z,35.83
2019-05-21T22:10:12.737Z,36.19
2019-05-21T22:12:44.554Z,35.75
2019-05-21T22:15:16.388Z,35.75
2019-05-21T22:17:48.597Z,36.01
2019-05-21T22:20:21.335Z,35.66
2019-05-21T22:22:52.682Z,35.66
2019-05-21T22:25:25.205Z,36.04
2019-05-21T22:28:01.129Z,36.08
2019-05-21T22:30:33.186Z,36.08
2019-05-21T22:33:04.968Z,36.11
2019-05-21T22:35:36.500Z,36.28
2019-05-21T22:38:08.309Z,36.38
2019-05-21T22:40:40.880Z,36.38
2019-05-21T22:43:13.345Z,36.90
2019-05-21T22:45:45.316Z,36.75
2019-05-21T22:48:16.750Z,36.75
2019-05-21T22:50:48.606Z,36.46
2019-05-21T22:53:20.519Z,36.30
2019-05-21T22:55:52.192Z,36.65
2019-05-21T22:58:23.947Z,37.07
2019-05-21T23:00:57.104Z,37.25
2019-05-21T23:03:28.900Z,37.11
2019-05-21T23:06:01.103Z,37.11
2019-05-21T23:08:33.480Z,37.23
2019-05-21T23:11:05.155Z,38.17
2019-05-21T23:13:37.137Z,38.17
2019-05-21T23:16:09.757Z,37.78
2019-05-21T23:18:43.098Z,38.27
2019-05-21T23:21:23.128Z,38.33
2019-05-21T23:23:56.335Z,38.33
2019-05-21T23:26:28.086Z,38.48
2019-05-21T23:29:00.249Z,38.50
2019-05-21T23:31:32.530Z,38.62
2019-05-21T23:34:05.552Z,38.45
2019-05-21T23:36:38.313Z,38.52
2019-05-21T23:39:15.964Z,38.47
2019-05-21T23:41:47.996Z,38.59
2019-05-21T23:44:19.281Z,39.02
2019-05-21T23:46:51.094Z,39.02
2019-05-21T23:49:22.805Z,38.83
2019-05-21T23:51:54.283Z,39.83
2019-05-21T23:54:25.781Z,39.83
2019-05-21T23:56:57.924Z,40.09
2019-05-21T23:59:29.777Z,39.13
